sensor_id;sensor_type;location;lat;lon;timestamp;temperature;humidity
7588;DHT22;3835;48.850;8.938;2023-02-11T00:02:27;-1.30;99.90
7588;DHT22;3835;48.850;8.938;2023-02-11T00:04:54;-1.30;99.90
7588;DHT22;3835;48.850;8.938;2023-02-11T00:07:22;-1.40;99.90
7588;DHT22;3835;48.850;8.938;2023-02-11T00:09:50;-1.40;99.90
7588;DHT22;3835;48.850;8.938;2023-02-11T00:12:19;-1.40;99.90
7588;DHT22;3835;48.850;8.938;2023-02-11T00:14:48;-1.40;99.90
7588;DHT22;3835;48.850;8.938;2023-02-11T00:17:18;-1.40;99.90
7588;DHT22;3835;48.850;8.938;2023-02-11T00:19:48;-1.50;99.90
7588;DHT22;3835;48.850;8.938;2023-02-11T00:22:16;-1.50;99.90
7588;DHT22;3835;48.850;8.938;2023-02-11T00:24:44;-1.50;99.90
7588;DHT22;3835;48.850;8.938;2023-02-11T00:27:12;-1.60;99.90
7588;DHT22;3835;48.850;8.938;2023-02-11T00:29:42;-1.60;99.90
7588;DHT22;3835;48.850;8.938;2023-02-11T00:32:13;-1.60;99.90
7588;DHT22;3835;48.850;8.938;2023-02-11T00:34:40;-1.60;99.90
7588;DHT22;3835;48.850;8.938;2023-02-11T00:37:08;-1.60;99.90
7588;DHT22;3835;48.850;8.938;2023-02-11T00:39:37;-1.60;99.90
7588;DHT22;3835;48.850;8.938;2023-02-11T00:42:04;-1.50;99.90
7588;DHT22;3835;48.850;8.938;2023-02-11T00:44:32;-1.40;99.90
7588;DHT22;3835;48.850;8.938;2023-02-11T00:47:00;-1.40;99.90
7588;DHT22;3835;48.850;8.938;2023-02-11T00:49:29;-1.50;99.90
7588;DHT22;3835;48.850;8.938;2023-02-11T00:51:57;-1.50;99.90
7588;DHT22;3835;48.850;8.938;2023-02-11T00:54:25;-1.50;99.90
7588;DHT22;3835;48.850;8.938;2023-02-11T00:56:52;-1.50;99.90
7588;DHT22;3835;48.850;8.938;2023-02-11T00:59:20;-1.60;99.90
7588;DHT22;3835;48.850;8.938;2023-02-11T01:01:48;-1.60;99.90
7588;DHT22;3835;48.850;8.938;2023-02-11T01:04:15;-1.50;99.90
7588;DHT22;3835;48.850;8.938;2023-02-11T01:06:44;-1.60;99.90
7588;DHT22;3835;48.850;8.938;2023-02-11T01:09:14;-1.70;99.90
7588;DHT22;3835;48.850;8.938;2023-02-11T01:11:41;-1.70;99.90
7588;DHT22;3835;48.850;8.938;2023-02-11T01:14:09;-1.80;99.90
7588;DHT22;3835;48.850;8.938;2023-02-11T01:16:38;-1.70;99.90
7588;DHT22;3835;48.850;8.938;2023-02-11T01:19:05;-1.70;99.90
7588;DHT22;3835;48.850;8.938;2023-02-11T01:21:33;-1.50;99.90
7588;DHT22;3835;48.850;8.938;2023-02-11T01:24:03;-1.40;99.90
7588;DHT22;3835;48.850;8.938;2023-02-11T01:26:30;-1.40;99.90
7588;DHT22;3835;48.850;8.938;2023-02-11T01:28:58;-1.50;99.90
7588;DHT22;3835;48.850;8.938;2023-02-11T01:31:26;-1.40;99.90
7588;DHT22;3835;48.850;8.938;2023-02-11T01:33:54;-1.50;99.90
7588;DHT22;3835;48.850;8.938;2023-02-11T01:36:20;-1.50;99.90
7588;DHT22;3835;48.850;8.938;2023-02-11T01:38:47;-1.50;99.90
7588;DHT22;3835;48.850;8.938;2023-02-11T01:41:15;-1.60;99.90
7588;DHT22;3835;48.850;8.938;2023-02-11T01:43:44;-1.50;99.90
7588;DHT22;3835;48.850;8.938;2023-02-11T01:46:28;-1.50;99.90
7588;DHT22;3835;48.850;8.938;2023-02-11T01:48:58;-1.60;99.90
7588;DHT22;3835;48.850;8.938;2023-02-11T01:51:31;-1.60;99.90
7588;DHT22;3835;48.850;8.938;2023-02-11T01:53:59;-1.60;99.90
7588;DHT22;3835;48.850;8.938;2023-02-11T01:56:48;-1.60;99.90
7588;DHT22;3835;48.850;8.938;2023-02-11T01:59:38;-1.60;99.90
7588;DHT22;3835;48.850;8.938;2023-02-11T02:02:09;-1.60;99.90
7588;DHT22;3835;48.850;8.938;2023-02-11T02:04:40;-1.60;99.90
7588;DHT22;3835;48.850;8.938;2023-02-11T02:07:13;-1.70;99.90
7588;DHT22;3835;48.850;8.938;2023-02-11T02:09:47;-1.70;99.90
7588;DHT22;3835;48.850;8.938;2023-02-11T02:12:16;-1.60;99.90
7588;DHT22;3835;48.850;8.938;2023-02-11T02:14:43;-1.60;99.90
7588;DHT22;3835;48.850;8.938;2023-02-11T02:17:13;-1.60;99.90
7588;DHT22;3835;48.850;8.938;2023-02-11T02:23:32;-1.60;99.90
7588;DHT22;3835;48.850;8.938;2023-02-11T02:26:25;-1.60;99.90
7588;DHT22;3835;48.850;8.938;2023-02-11T02:29:20;-1.60;99.90
7588;DHT22;3835;48.850;8.938;2023-02-11T02:35:02;-1.60;99.90
7588;DHT22;3835;48.850;8.938;2023-02-11T02:37:33;-1.70;99.90
7588;DHT22;3835;48.850;8.938;2023-02-11T02:40:05;-1.70;99.90
7588;DHT22;3835;48.850;8.938;2023-02-11T02:42:35;-1.70;99.90
7588;DHT22;3835;48.850;8.938;2023-02-11T02:45:06;-1.70;99.90
7588;DHT22;3835;48.850;8.938;2023-02-11T02:47:33;-1.70;99.90
7588;DHT22;3835;48.850;8.938;2023-02-11T02:50:02;-1.60;99.90
7588;DHT22;3835;48.850;8.938;2023-02-11T02:52:34;-1.60;99.90
7588;DHT22;3835;48.850;8.938;2023-02-11T02:55:27;-1.70;99.90
7588;DHT22;3835;48.850;8.938;2023-02-11T02:58:10;-1.70;99.90
7588;DHT22;3835;48.850;8.938;2023-02-11T03:00:43;-1.70;99.90
7588;DHT22;3835;48.850;8.938;2023-02-11T03:03:24;-1.70;99.90
7588;DHT22;3835;48.850;8.938;2023-02-11T03:06:03;-1.70;99.90
7588;DHT22;3835;48.850;8.938;2023-02-11T03:08:34;-1.70;99.90
7588;DHT22;3835;48.850;8.938;2023-02-11T03:11:04;-1.60;99.90
7588;DHT22;3835;48.850;8.938;2023-02-11T03:13:33;-1.70;99.90
7588;DHT22;3835;48.850;8.938;2023-02-11T03:16:06;-1.70;99.90
7588;DHT22;3835;48.850;8.938;2023-02-11T03:18:35;-1.80;99.90
7588;DHT22;3835;48.850;8.938;2023-02-11T03:21:07;-1.80;99.90
7588;DHT22;3835;48.850;8.938;2023-02-11T03:23:37;-1.90;99.90
7588;DHT22;3835;48.850;8.938;2023-02-11T03:26:11;-1.90;99.90
7588;DHT22;3835;48.850;8.938;2023-02-11T03:28:43;-1.80;99.90
7588;DHT22;3835;48.850;8.938;2023-02-11T03:31:17;-1.70;99.90
7588;DHT22;3835;48.850;8.938;2023-02-11T03:33:52;-1.70;99.90
7588;DHT22;3835;48.850;8.938;2023-02-11T03:36:26;-1.60;99.90
7588;DHT22;3835;48.850;8.938;2023-02-11T03:38:57;-1.60;99.90
7588;DHT22;3835;48.850;8.938;2023-02-11T03:41:25;-1.60;99.90
7588;DHT22;3835;48.850;8.938;2023-02-11T03:43:54;-1.70;99.90
7588;DHT22;3835;48.850;8.938;2023-02-11T03:46:30;-1.70;99.90
7588;DHT22;3835;48.850;8.938;2023-02-11T03:49:02;-1.70;99.90
7588;DHT22;3835;48.850;8.938;2023-02-11T03:51:32;-1.70;99.90
7588;DHT22;3835;48.850;8.938;2023-02-11T03:54:01;-1.70;99.90
7588;DHT22;3835;48.850;8.938;2023-02-11T03:56:32;-1.70;99.90
7588;DHT22;3835;48.850;8.938;2023-02-11T03:58:59;-1.60;99.90
7588;DHT22;3835;48.850;8.938;2023-02-11T04:01:26;-1.60;99.90
7588;DHT22;3835;48.850;8.938;2023-02-11T04:03:53;-1.60;99.90
7588;DHT22;3835;48.850;8.938;2023-02-11T04:06:20;-1.50;99.90
7588;DHT22;3835;48.850;8.938;2023-02-11T04:08:48;-1.50;99.90
7588;DHT22;3835;48.850;8.938;2023-02-11T04:11:15;-1.40;99.90
7588;DHT22;3835;48.850;8.938;2023-02-11T04:13:41;-1.30;99.90
7588;DHT22;3835;48.850;8.938;2023-02-11T04:16:08;-1.20;99.90
7588;DHT22;3835;48.850;8.938;2023-02-11T04:18:35;-1.20;99.90
7588;DHT22;3835;48.850;8.938;2023-02-11T04:21:02;-1.20;99.90
7588;DHT22;3835;48.850;8.938;2023-02-11T04:23:28;-1.10;99.90
7588;DHT22;3835;48.850;8.938;2023-02-11T04:25:57;-1.00;99.90
7588;DHT22;3835;48.850;8.938;2023-02-11T04:28:23;-1.00;99.90
7588;DHT22;3835;48.850;8.938;2023-02-11T04:30:53;-1.00;99.90
7588;DHT22;3835;48.850;8.938;2023-02-11T04:33:20;-1.00;99.90
7588;DHT22;3835;48.850;8.938;2023-02-11T04:35:47;-1.00;99.90
7588;DHT22;3835;48.850;8.938;2023-02-11T04:38:14;-0.90;99.90
7588;DHT22;3835;48.850;8.938;2023-02-11T04:40:41;-0.90;99.90
7588;DHT22;3835;48.850;8.938;2023-02-11T04:43:09;-0.80;99.90
7588;DHT22;3835;48.850;8.938;2023-02-11T04:45:36;-0.80;99.90
7588;DHT22;3835;48.850;8.938;2023-02-11T04:48:03;-0.70;99.90
7588;DHT22;3835;48.850;8.938;2023-02-11T04:50:30;-0.60;99.90
7588;DHT22;3835;48.850;8.938;2023-02-11T04:52:57;-0.60;99.90
7588;DHT22;3835;48.850;8.938;2023-02-11T04:55:23;-0.50;99.90
7588;DHT22;3835;48.850;8.938;2023-02-11T04:57:50;-0.40;99.90
7588;DHT22;3835;48.850;8.938;2023-02-11T05:00:18;-0.30;99.90
7588;DHT22;3835;48.850;8.938;2023-02-11T05:02:45;-0.20;99.90
7588;DHT22;3835;48.850;8.938;2023-02-11T05:05:12;-0.20;99.90
7588;DHT22;3835;48.850;8.938;2023-02-11T05:07:39;-0.10;99.90
7588;DHT22;3835;48.850;8.938;2023-02-11T05:10:06;-0.10;99.90
7588;DHT22;3835;48.850;8.938;2023-02-11T05:12:32;0.00;99.90
7588;DHT22;3835;48.850;8.938;2023-02-11T05:14:59;0.00;99.90
7588;DHT22;3835;48.850;8.938;2023-02-11T05:17:27;0.00;99.90
7588;DHT22;3835;48.850;8.938;2023-02-11T05:19:54;0.00;99.90
7588;DHT22;3835;48.850;8.938;2023-02-11T05:22:21;0.00;99.90
7588;DHT22;3835;48.850;8.938;2023-02-11T05:24:48;0.00;99.90
7588;DHT22;3835;48.850;8.938;2023-02-11T05:27:14;0.00;99.90
7588;DHT22;3835;48.850;8.938;2023-02-11T05:29:41;-0.10;99.90
7588;DHT22;3835;48.850;8.938;2023-02-11T05:32:08;-0.10;99.90
7588;DHT22;3835;48.850;8.938;2023-02-11T05:34:36;-0.10;99.90
7588;DHT22;3835;48.850;8.938;2023-02-11T05:37:03;-0.20;99.90
7588;DHT22;3835;48.850;8.938;2023-02-11T05:39:29;-0.20;99.90
7588;DHT22;3835;48.850;8.938;2023-02-11T05:41:56;-0.20;99.90
7588;DHT22;3835;48.850;8.938;2023-02-11T05:44:23;-0.10;99.90
7588;DHT22;3835;48.850;8.938;2023-02-11T05:46:50;-0.10;99.90
7588;DHT22;3835;48.850;8.938;2023-02-11T05:49:17;-0.10;99.90
7588;DHT22;3835;48.850;8.938;2023-02-11T05:51:45;-0.10;99.90
7588;DHT22;3835;48.850;8.938;2023-02-11T05:54:12;0.00;99.90
7588;DHT22;3835;48.850;8.938;2023-02-11T05:56:38;0.00;99.90
7588;DHT22;3835;48.850;8.938;2023-02-11T05:59:05;0.00;99.90
7588;DHT22;3835;48.850;8.938;2023-02-11T06:01:32;0.00;99.90
7588;DHT22;3835;48.850;8.938;2023-02-11T06:03:59;0.00;99.90
7588;DHT22;3835;48.850;8.938;2023-02-11T06:06:25;0.10;99.90
7588;DHT22;3835;48.850;8.938;2023-02-11T06:08:54;0.10;99.90
7588;DHT22;3835;48.850;8.938;2023-02-11T06:11:21;0.10;99.90
7588;DHT22;3835;48.850;8.938;2023-02-11T06:13:47;0.10;99.90
7588;DHT22;3835;48.850;8.938;2023-02-11T06:16:14;0.10;99.90
7588;DHT22;3835;48.850;8.938;2023-02-11T06:18:41;0.20;99.90
7588;DHT22;3835;48.850;8.938;2023-02-11T06:21:08;0.20;99.90
7588;DHT22;3835;48.850;8.938;2023-02-11T06:23:36;0.20;99.90
7588;DHT22;3835;48.850;8.938;2023-02-11T06:26:05;0.20;99.90
7588;DHT22;3835;48.850;8.938;2023-02-11T06:28:32;0.20;99.90
7588;DHT22;3835;48.850;8.938;2023-02-11T06:31:04;0.20;99.90
7588;DHT22;3835;48.850;8.938;2023-02-11T06:33:30;0.20;99.90
7588;DHT22;3835;48.850;8.938;2023-02-11T06:35:57;0.20;99.90
7588;DHT22;3835;48.850;8.938;2023-02-11T06:38:24;0.30;99.90
7588;DHT22;3835;48.850;8.938;2023-02-11T06:40:51;0.30;99.90
7588;DHT22;3835;48.850;8.938;2023-02-11T06:43:19;0.30;99.90
7588;DHT22;3835;48.850;8.938;2023-02-11T06:45:52;0.30;99.90
7588;DHT22;3835;48.850;8.938;2023-02-11T06:48:19;0.30;99.90
7588;DHT22;3835;48.850;8.938;2023-02-11T06:50:46;0.30;99.90
7588;DHT22;3835;48.850;8.938;2023-02-11T06:53:13;0.40;99.90
7588;DHT22;3835;48.850;8.938;2023-02-11T06:55:40;0.40;99.90
7588;DHT22;3835;48.850;8.938;2023-02-11T06:58:06;0.50;99.90
7588;DHT22;3835;48.850;8.938;2023-02-11T07:00:35;0.50;99.90
7588;DHT22;3835;48.850;8.938;2023-02-11T07:03:02;0.50;99.90
7588;DHT22;3835;48.850;8.938;2023-02-11T07:05:29;0.40;99.90
7588;DHT22;3835;48.850;8.938;2023-02-11T07:07:56;0.40;99.90
7588;DHT22;3835;48.850;8.938;2023-02-11T07:10:23;0.50;99.90
7588;DHT22;3835;48.850;8.938;2023-02-11T07:12:50;0.50;99.90
7588;DHT22;3835;48.850;8.938;2023-02-11T07:15:16;0.50;99.90
7588;DHT22;3835;48.850;8.938;2023-02-11T07:17:45;0.50;99.90
7588;DHT22;3835;48.850;8.938;2023-02-11T07:20:11;0.60;99.90
7588;DHT22;3835;48.850;8.938;2023-02-11T07:22:39;0.60;99.90
7588;DHT22;3835;48.850;8.938;2023-02-11T07:25:06;0.60;99.90
7588;DHT22;3835;48.850;8.938;2023-02-11T07:27:33;0.60;99.90
7588;DHT22;3835;48.850;8.938;2023-02-11T07:30:00;0.70;99.90
7588;DHT22;3835;48.850;8.938;2023-02-11T07:32:27;0.80;99.90
7588;DHT22;3835;48.850;8.938;2023-02-11T07:34:55;0.80;99.90
7588;DHT22;3835;48.850;8.938;2023-02-11T07:37:22;0.90;99.90
7588;DHT22;3835;48.850;8.938;2023-02-11T07:39:48;1.00;99.90
7588;DHT22;3835;48.850;8.938;2023-02-11T07:42:15;1.20;99.90
7588;DHT22;3835;48.850;8.938;2023-02-11T07:44:42;1.30;99.90
7588;DHT22;3835;48.850;8.938;2023-02-11T07:47:09;1.40;99.90
7588;DHT22;3835;48.850;8.938;2023-02-11T07:49:36;1.40;99.90
7588;DHT22;3835;48.850;8.938;2023-02-11T07:52:04;1.50;99.90
7588;DHT22;3835;48.850;8.938;2023-02-11T07:54:31;1.60;99.90
7588;DHT22;3835;48.850;8.938;2023-02-11T07:56:57;1.70;99.90
7588;DHT22;3835;48.850;8.938;2023-02-11T07:59:24;1.70;99.90
7588;DHT22;3835;48.850;8.938;2023-02-11T08:01:51;1.80;99.90
7588;DHT22;3835;48.850;8.938;2023-02-11T08:04:18;1.80;99.90
7588;DHT22;3835;48.850;8.938;2023-02-11T08:06:45;1.90;99.90
7588;DHT22;3835;48.850;8.938;2023-02-11T08:09:15;2.00;99.90
7588;DHT22;3835;48.850;8.938;2023-02-11T08:11:42;1.90;99.90
7588;DHT22;3835;48.850;8.938;2023-02-11T08:14:09;1.80;99.90
7588;DHT22;3835;48.850;8.938;2023-02-11T08:16:37;1.70;99.90
7588;DHT22;3835;48.850;8.938;2023-02-11T08:19:06;1.80;99.90
7588;DHT22;3835;48.850;8.938;2023-02-11T08:21:33;2.00;99.90
7588;DHT22;3835;48.850;8.938;2023-02-11T08:24:01;2.00;99.90
7588;DHT22;3835;48.850;8.938;2023-02-11T08:26:31;1.90;99.90
7588;DHT22;3835;48.850;8.938;2023-02-11T08:29:00;2.10;99.90
7588;DHT22;3835;48.850;8.938;2023-02-11T08:31:28;2.20;99.90
7588;DHT22;3835;48.850;8.938;2023-02-11T08:33:56;2.30;99.90
7588;DHT22;3835;48.850;8.938;2023-02-11T08:36:25;2.40;99.90
7588;DHT22;3835;48.850;8.938;2023-02-11T08:38:54;2.40;99.90
7588;DHT22;3835;48.850;8.938;2023-02-11T08:41:21;2.40;99.90
7588;DHT22;3835;48.850;8.938;2023-02-11T08:43:49;2.50;99.90
7588;DHT22;3835;48.850;8.938;2023-02-11T08:46:17;2.70;99.90
7588;DHT22;3835;48.850;8.938;2023-02-11T08:48:44;2.90;99.90
7588;DHT22;3835;48.850;8.938;2023-02-11T08:51:15;3.10;99.90
7588;DHT22;3835;48.850;8.938;2023-02-11T08:53:42;3.20;99.90
7588;DHT22;3835;48.850;8.938;2023-02-11T08:56:10;3.40;99.90
7588;DHT22;3835;48.850;8.938;2023-02-11T08:58:37;3.50;99.90
7588;DHT22;3835;48.850;8.938;2023-02-11T09:01:11;3.80;99.90
7588;DHT22;3835;48.850;8.938;2023-02-11T09:03:38;3.90;99.90
7588;DHT22;3835;48.850;8.938;2023-02-11T09:06:07;4.10;99.90
7588;DHT22;3835;48.850;8.938;2023-02-11T09:08:34;4.10;99.90
7588;DHT22;3835;48.850;8.938;2023-02-11T09:11:01;4.00;99.90
7588;DHT22;3835;48.850;8.938;2023-02-11T09:13:29;4.00;99.90
7588;DHT22;3835;48.850;8.938;2023-02-11T09:15:56;3.90;99.90
7588;DHT22;3835;48.850;8.938;2023-02-11T09:18:24;4.00;99.90
7588;DHT22;3835;48.850;8.938;2023-02-11T09:20:51;4.10;99.90
7588;DHT22;3835;48.850;8.938;2023-02-11T09:23:17;4.10;99.90
7588;DHT22;3835;48.850;8.938;2023-02-11T09:25:44;4.10;99.90
7588;DHT22;3835;48.850;8.938;2023-02-11T09:28:11;4.10;99.90
7588;DHT22;3835;48.850;8.938;2023-02-11T09:30:38;4.00;99.90
7588;DHT22;3835;48.850;8.938;2023-02-11T09:33:05;3.90;99.90
7588;DHT22;3835;48.850;8.938;2023-02-11T09:35:33;4.00;99.90
7588;DHT22;3835;48.850;8.938;2023-02-11T09:38:00;4.20;99.90
7588;DHT22;3835;48.850;8.938;2023-02-11T09:40:27;4.40;99.90
7588;DHT22;3835;48.850;8.938;2023-02-11T09:42:56;4.60;99.90
7588;DHT22;3835;48.850;8.938;2023-02-11T09:45:28;4.90;99.90
7588;DHT22;3835;48.850;8.938;2023-02-11T09:47:58;5.00;99.90
7588;DHT22;3835;48.850;8.938;2023-02-11T09:50:29;5.20;99.90
7588;DHT22;3835;48.850;8.938;2023-02-11T09:53:00;5.30;99.90
7588;DHT22;3835;48.850;8.938;2023-02-11T09:55:29;5.30;99.90
7588;DHT22;3835;48.850;8.938;2023-02-11T09:57:59;5.30;99.90
7588;DHT22;3835;48.850;8.938;2023-02-11T10:00:33;5.30;99.90
7588;DHT22;3835;48.850;8.938;2023-02-11T10:03:20;5.30;99.90
7588;DHT22;3835;48.850;8.938;2023-02-11T10:06:02;5.40;99.90
7588;DHT22;3835;48.850;8.938;2023-02-11T10:08:40;5.60;99.90
7588;DHT22;3835;48.850;8.938;2023-02-11T10:11:19;5.70;99.90
7588;DHT22;3835;48.850;8.938;2023-02-11T10:13:55;5.80;99.90
7588;DHT22;3835;48.850;8.938;2023-02-11T10:16:35;6.00;99.90
7588;DHT22;3835;48.850;8.938;2023-02-11T10:19:15;6.20;99.90
7588;DHT22;3835;48.850;8.938;2023-02-11T10:21:53;6.20;99.90
7588;DHT22;3835;48.850;8.938;2023-02-11T10:24:24;6.30;99.90
7588;DHT22;3835;48.850;8.938;2023-02-11T10:26:53;6.30;99.90
7588;DHT22;3835;48.850;8.938;2023-02-11T10:29:34;6.10;99.90
7588;DHT22;3835;48.850;8.938;2023-02-11T10:32:09;6.00;99.90
7588;DHT22;3835;48.850;8.938;2023-02-11T10:34:40;5.90;99.90
7588;DHT22;3835;48.850;8.938;2023-02-11T10:37:09;5.80;99.90
7588;DHT22;3835;48.850;8.938;2023-02-11T10:39:40;5.80;99.90
7588;DHT22;3835;48.850;8.938;2023-02-11T10:42:10;6.00;99.90
7588;DHT22;3835;48.850;8.938;2023-02-11T10:44:42;6.00;99.90
7588;DHT22;3835;48.850;8.938;2023-02-11T10:47:17;5.90;99.90
7588;DHT22;3835;48.850;8.938;2023-02-11T10:49:47;5.90;99.90
7588;DHT22;3835;48.850;8.938;2023-02-11T10:52:19;6.00;99.90
7588;DHT22;3835;48.850;8.938;2023-02-11T10:55:02;6.00;99.90
7588;DHT22;3835;48.850;8.938;2023-02-11T10:57:35;6.00;99.90
7588;DHT22;3835;48.850;8.938;2023-02-11T11:00:22;6.10;99.90
7588;DHT22;3835;48.850;8.938;2023-02-11T11:02:54;6.10;99.90
7588;DHT22;3835;48.850;8.938;2023-02-11T11:05:27;6.10;99.90
7588;DHT22;3835;48.850;8.938;2023-02-11T11:07:56;6.20;99.90
7588;DHT22;3835;48.850;8.938;2023-02-11T11:10:29;6.30;99.90
7588;DHT22;3835;48.850;8.938;2023-02-11T11:12:56;6.40;99.90
7588;DHT22;3835;48.850;8.938;2023-02-11T11:15:25;6.30;99.90
7588;DHT22;3835;48.850;8.938;2023-02-11T11:18:08;6.40;99.90
7588;DHT22;3835;48.850;8.938;2023-02-11T11:20:38;6.40;99.90
7588;DHT22;3835;48.850;8.938;2023-02-11T11:23:15;6.50;99.90
7588;DHT22;3835;48.850;8.938;2023-02-11T11:25:59;6.50;99.90
7588;DHT22;3835;48.850;8.938;2023-02-11T11:28:28;6.30;99.90
7588;DHT22;3835;48.850;8.938;2023-02-11T11:30:56;6.40;99.90
7588;DHT22;3835;48.850;8.938;2023-02-11T11:33:27;6.70;99.90
7588;DHT22;3835;48.850;8.938;2023-02-11T11:36:01;6.60;99.90
7588;DHT22;3835;48.850;8.938;2023-02-11T11:38:30;6.60;99.90
7588;DHT22;3835;48.850;8.938;2023-02-11T11:41:19;7.00;99.90
7588;DHT22;3835;48.850;8.938;2023-02-11T11:43:58;7.20;99.90
7588;DHT22;3835;48.850;8.938;2023-02-11T11:46:29;7.00;99.90
7588;DHT22;3835;48.850;8.938;2023-02-11T11:49:12;7.00;99.90
7588;DHT22;3835;48.850;8.938;2023-02-11T11:51:46;6.80;99.90
7588;DHT22;3835;48.850;8.938;2023-02-11T11:54:17;6.70;99.90
7588;DHT22;3835;48.850;8.938;2023-02-11T11:56:52;6.80;99.90
7588;DHT22;3835;48.850;8.938;2023-02-11T11:59:21;7.20;99.90
7588;DHT22;3835;48.850;8.938;2023-02-11T12:02:06;7.60;99.90
7588;DHT22;3835;48.850;8.938;2023-02-11T12:04:58;7.60;99.90
7588;DHT22;3835;48.850;8.938;2023-02-11T12:07:37;7.50;99.90
7588;DHT22;3835;48.850;8.938;2023-02-11T12:10:23;7.50;99.90
7588;DHT22;3835;48.850;8.938;2023-02-11T12:13:04;7.40;99.90
7588;DHT22;3835;48.850;8.938;2023-02-11T12:15:40;7.50;99.90
7588;DHT22;3835;48.850;8.938;2023-02-11T12:18:25;7.60;99.90
7588;DHT22;3835;48.850;8.938;2023-02-11T12:21:16;7.80;99.90
7588;DHT22;3835;48.850;8.938;2023-02-11T12:23:55;8.00;99.90
7588;DHT22;3835;48.850;8.938;2023-02-11T12:26:27;8.00;99.90
7588;DHT22;3835;48.850;8.938;2023-02-11T12:29:04;8.00;99.90
7588;DHT22;3835;48.850;8.938;2023-02-11T12:31:53;8.00;99.90
7588;DHT22;3835;48.850;8.938;2023-02-11T12:34:40;7.90;99.90
7588;DHT22;3835;48.850;8.938;2023-02-11T12:37:21;7.60;99.90
7588;DHT22;3835;48.850;8.938;2023-02-11T12:39:57;7.60;99.90
7588;DHT22;3835;48.850;8.938;2023-02-11T12:42:47;7.40;99.90
7588;DHT22;3835;48.850;8.938;2023-02-11T12:46:01;7.60;99.90
7588;DHT22;3835;48.850;8.938;2023-02-11T12:48:43;7.60;99.90
7588;DHT22;3835;48.850;8.938;2023-02-11T12:51:22;7.60;99.90
7588;DHT22;3835;48.850;8.938;2023-02-11T12:54:07;7.80;99.90
7588;DHT22;3835;48.850;8.938;2023-02-11T12:56:44;7.90;99.90
7588;DHT22;3835;48.850;8.938;2023-02-11T12:59:16;7.80;99.90
7588;DHT22;3835;48.850;8.938;2023-02-11T13:01:47;7.70;99.90
7588;DHT22;3835;48.850;8.938;2023-02-11T13:04:20;7.50;99.90
7588;DHT22;3835;48.850;8.938;2023-02-11T13:06:54;7.20;99.90
7588;DHT22;3835;48.850;8.938;2023-02-11T13:09:25;7.20;99.90
7588;DHT22;3835;48.850;8.938;2023-02-11T13:11:56;7.20;99.90
7588;DHT22;3835;48.850;8.938;2023-02-11T13:14:26;7.30;99.90
7588;DHT22;3835;48.850;8.938;2023-02-11T13:16:56;7.40;99.90
7588;DHT22;3835;48.850;8.938;2023-02-11T13:19:29;7.50;99.90
7588;DHT22;3835;48.850;8.938;2023-02-11T13:22:07;7.40;99.90
7588;DHT22;3835;48.850;8.938;2023-02-11T13:24:43;7.20;99.90
7588;DHT22;3835;48.850;8.938;2023-02-11T13:27:21;7.20;99.90
7588;DHT22;3835;48.850;8.938;2023-02-11T13:30:13;7.20;99.90
7588;DHT22;3835;48.850;8.938;2023-02-11T13:33:18;7.20;99.90
7588;DHT22;3835;48.850;8.938;2023-02-11T13:35:49;7.20;99.90
7588;DHT22;3835;48.850;8.938;2023-02-11T13:38:36;7.30;99.90
7588;DHT22;3835;48.850;8.938;2023-02-11T13:41:05;7.20;99.90
7588;DHT22;3835;48.850;8.938;2023-02-11T13:43:35;7.30;99.90
7588;DHT22;3835;48.850;8.938;2023-02-11T13:46:05;7.20;99.90
7588;DHT22;3835;48.850;8.938;2023-02-11T13:48:38;7.20;99.90
7588;DHT22;3835;48.850;8.938;2023-02-11T13:51:13;7.10;99.90
7588;DHT22;3835;48.850;8.938;2023-02-11T13:53:49;7.10;99.90
7588;DHT22;3835;48.850;8.938;2023-02-11T13:56:28;7.10;99.90
7588;DHT22;3835;48.850;8.938;2023-02-11T13:58:57;7.10;99.90
7588;DHT22;3835;48.850;8.938;2023-02-11T14:02:00;7.10;99.90
7588;DHT22;3835;48.850;8.938;2023-02-11T14:05:15;7.10;99.90
7588;DHT22;3835;48.850;8.938;2023-02-11T14:08:16;7.10;99.90
7588;DHT22;3835;48.850;8.938;2023-02-11T14:11:03;7.20;99.90
7588;DHT22;3835;48.850;8.938;2023-02-11T14:13:34;7.40;99.90
7588;DHT22;3835;48.850;8.938;2023-02-11T14:16:07;7.50;99.90
7588;DHT22;3835;48.850;8.938;2023-02-11T14:18:58;7.50;99.90
7588;DHT22;3835;48.850;8.938;2023-02-11T14:21:36;7.60;99.90
7588;DHT22;3835;48.850;8.938;2023-02-11T14:27:23;7.70;99.90
7588;DHT22;3835;48.850;8.938;2023-02-11T14:30:24;7.60;99.90
7588;DHT22;3835;48.850;8.938;2023-02-11T14:33:07;7.30;99.90
7588;DHT22;3835;48.850;8.938;2023-02-11T14:35:47;7.30;99.90
7588;DHT22;3835;48.850;8.938;2023-02-11T14:38:27;7.20;99.90
7588;DHT22;3835;48.850;8.938;2023-02-11T14:41:04;7.20;99.90
7588;DHT22;3835;48.850;8.938;2023-02-11T14:43:37;7.30;99.90
7588;DHT22;3835;48.850;8.938;2023-02-11T14:46:06;7.40;99.90
7588;DHT22;3835;48.850;8.938;2023-02-11T14:48:36;7.50;99.90
7588;DHT22;3835;48.850;8.938;2023-02-11T14:51:08;7.50;99.90
7588;DHT22;3835;48.850;8.938;2023-02-11T14:53:43;7.70;99.90
7588;DHT22;3835;48.850;8.938;2023-02-11T14:56:18;7.70;99.90
7588;DHT22;3835;48.850;8.938;2023-02-11T14:58:48;7.70;99.90
7588;DHT22;3835;48.850;8.938;2023-02-11T15:01:25;7.70;99.90
7588;DHT22;3835;48.850;8.938;2023-02-11T15:03:57;7.80;99.90
7588;DHT22;3835;48.850;8.938;2023-02-11T15:06:27;7.80;99.90
7588;DHT22;3835;48.850;8.938;2023-02-11T15:08:59;7.70;99.90
7588;DHT22;3835;48.850;8.938;2023-02-11T15:11:30;7.20;99.90
7588;DHT22;3835;48.850;8.938;2023-02-11T15:14:00;7.00;99.90
7588;DHT22;3835;48.850;8.938;2023-02-11T15:16:33;6.90;99.90
7588;DHT22;3835;48.850;8.938;2023-02-11T15:19:03;7.00;99.90
7588;DHT22;3835;48.850;8.938;2023-02-11T15:21:34;6.90;99.90
7588;DHT22;3835;48.850;8.938;2023-02-11T15:24:17;6.90;99.90
7588;DHT22;3835;48.850;8.938;2023-02-11T15:26:58;6.90;99.90
7588;DHT22;3835;48.850;8.938;2023-02-11T15:29:32;6.60;99.90
7588;DHT22;3835;48.850;8.938;2023-02-11T15:32:14;6.50;99.90
7588;DHT22;3835;48.850;8.938;2023-02-11T15:34:43;6.50;99.90
7588;DHT22;3835;48.850;8.938;2023-02-11T15:37:13;6.40;99.90
7588;DHT22;3835;48.850;8.938;2023-02-11T15:39:45;6.40;99.90
7588;DHT22;3835;48.850;8.938;2023-02-11T15:42:18;6.30;99.90
7588;DHT22;3835;48.850;8.938;2023-02-11T15:44:47;6.30;99.90
7588;DHT22;3835;48.850;8.938;2023-02-11T15:47:18;6.40;99.90
7588;DHT22;3835;48.850;8.938;2023-02-11T15:49:47;6.30;99.90
7588;DHT22;3835;48.850;8.938;2023-02-11T15:52:22;6.20;99.90
7588;DHT22;3835;48.850;8.938;2023-02-11T15:54:53;6.20;99.90
7588;DHT22;3835;48.850;8.938;2023-02-11T15:57:22;6.20;99.90
7588;DHT22;3835;48.850;8.938;2023-02-11T15:59:53;6.20;99.90
7588;DHT22;3835;48.850;8.938;2023-02-11T16:02:24;6.20;99.90
7588;DHT22;3835;48.850;8.938;2023-02-11T16:04:57;6.20;99.90
7588;DHT22;3835;48.850;8.938;2023-02-11T16:07:47;6.10;99.90
7588;DHT22;3835;48.850;8.938;2023-02-11T16:10:18;6.10;99.90
7588;DHT22;3835;48.850;8.938;2023-02-11T16:12:54;6.10;99.90
7588;DHT22;3835;48.850;8.938;2023-02-11T16:15:43;6.10;99.90
7588;DHT22;3835;48.850;8.938;2023-02-11T16:18:24;6.00;99.90
7588;DHT22;3835;48.850;8.938;2023-02-11T16:20:53;6.00;99.90
7588;DHT22;3835;48.850;8.938;2023-02-11T16:23:24;6.00;99.90
7588;DHT22;3835;48.850;8.938;2023-02-11T16:25:58;6.00;99.90
7588;DHT22;3835;48.850;8.938;2023-02-11T16:28:27;6.00;99.90
7588;DHT22;3835;48.850;8.938;2023-02-11T16:30:59;6.00;99.90
7588;DHT22;3835;48.850;8.938;2023-02-11T16:33:29;6.00;99.90
7588;DHT22;3835;48.850;8.938;2023-02-11T16:35:57;5.90;99.90
7588;DHT22;3835;48.850;8.938;2023-02-11T16:38:27;5.90;99.90
7588;DHT22;3835;48.850;8.938;2023-02-11T16:40:56;5.90;99.90
7588;DHT22;3835;48.850;8.938;2023-02-11T16:43:24;5.90;99.90
7588;DHT22;3835;48.850;8.938;2023-02-11T16:45:53;5.90;99.90
7588;DHT22;3835;48.850;8.938;2023-02-11T16:48:24;5.90;99.90
7588;DHT22;3835;48.850;8.938;2023-02-11T16:50:53;5.90;99.90
7588;DHT22;3835;48.850;8.938;2023-02-11T16:53:22;5.90;99.90